Time;durP1;ratioP1;P1;durP2;ratioP2;P2;SDS_P1;SDS_P2;PMS_P1;PMS_P2;Temp;Humidity;BMP_temperature;BMP_pressure;BME280_temperature;BME280_humidity;BME280_pressure;Samples;Min_cycle;Max_cycle;Signal;HPM_P1;HPM_P2
2022/05/05 00:01:14;;;;;;;27.50;10.93;;;;;;;11.13;68.12;101932.50;5043921;28;20179;-82
2022/05/05 00:03:39;;;;;;;33.55;12.02;;;;;;;11.14;68.29;101939.50;5043988;28;20021;-82
2022/05/05 00:06:05;;;;;;;29.52;11.98;;;;;;;11.14;68.25;101943.84;5030353;28;20049;-82
2022/05/05 00:08:30;;;;;;;27.05;11.45;;;;;;;11.11;67.76;101933.31;5044252;28;20021;-83
2022/05/05 00:16:24;;;;;;;28.05;12.05;;;;;;;11.05;67.49;101948.69;5043706;28;20076;-83
2022/05/05 00:18:49;;;;;;;29.23;12.07;;;;;;;11.04;67.65;101939.09;5043113;28;20045;-83
2022/05/05 00:21:15;;;;;;;23.38;11.50;;;;;;;11.01;67.56;101944.16;5031644;28;20181;-83
2022/05/05 00:23:40;;;;;;;24.65;11.10;;;;;;;10.93;66.75;101944.78;5043445;28;20031;-83
2022/05/05 00:26:06;;;;;;;25.65;11.75;;;;;;;10.95;66.52;101942.25;5043606;28;20036;-83
2022/05/05 00:28:31;;;;;;;24.08;11.45;;;;;;;10.95;66.17;101937.03;5043719;28;20060;-83
2022/05/05 00:30:56;;;;;;;26.60;11.93;;;;;;;10.93;66.63;101938.66;5032508;28;20219;-83
2022/05/05 00:33:22;;;;;;;23.77;11.38;;;;;;;10.88;66.83;101938.50;5043495;28;20022;-83
2022/05/05 00:35:47;;;;;;;25.83;12.52;;;;;;;10.84;67.52;101935.69;5056715;28;20037;-83
2022/05/05 00:38:12;;;;;;;22.17;11.30;;;;;;;10.85;67.34;101940.97;5033928;28;20026;-83
2022/05/05 00:40:37;;;;;;;25.90;11.50;;;;;;;10.84;67.72;101938.31;5043006;28;20337;-83
2022/05/05 00:43:03;;;;;;;25.13;12.05;;;;;;;10.81;68.10;101938.19;5043196;28;20032;-83
2022/05/05 00:45:28;;;;;;;27.05;11.63;;;;;;;10.78;67.84;101938.94;5043327;28;20266;-83
2022/05/05 00:48:03;;;;;;;25.20;11.27;;;;;;;10.71;68.23;101932.59;5032893;28;20032;-83
2022/05/05 00:50:31;;;;;;;24.55;10.98;;;;;;;10.66;68.75;101934.13;5058639;28;20044;-83
2022/05/05 00:52:56;;;;;;;27.70;11.50;;;;;;;10.66;68.41;101931.53;5058642;28;20173;-83
2022/05/05 00:55:22;;;;;;;21.42;10.93;;;;;;;10.66;68.69;101935.84;5042940;28;20025;-83
2022/05/05 00:57:47;;;;;;;25.77;12.13;;;;;;;10.56;68.41;101927.66;5033710;28;20037;-83
2022/05/05 01:00:13;;;;;;;24.00;12.20;;;;;;;10.55;68.43;101936.28;5037438;28;20048;-83
2022/05/05 01:02:38;;;;;;;25.45;12.23;;;;;;;10.53;68.29;101937.94;5042932;28;20022;-83
2022/05/05 01:05:04;;;;;;;25.30;12.65;;;;;;;10.52;68.61;101930.94;5042996;28;20036;-83
2022/05/05 01:07:29;;;;;;;24.88;12.80;;;;;;;10.50;68.59;101932.63;5034442;28;20300;-83
2022/05/05 01:09:55;;;;;;;25.55;12.50;;;;;;;10.49;68.99;101933.44;5058275;28;20033;-83
2022/05/05 01:12:22;;;;;;;27.88;13.27;;;;;;;10.44;69.19;101937.56;5042906;28;20273;-83
2022/05/05 01:14:48;;;;;;;24.67;11.93;;;;;;;10.42;69.21;101934.00;5042842;28;20113;-83
2022/05/05 01:17:13;;;;;;;28.33;12.32;;;;;;;10.42;69.48;101934.00;5050761;28;20227;-83
2022/05/05 01:19:38;;;;;;;23.40;12.02;;;;;;;10.42;69.37;101934.88;5042835;28;20071;-83
2022/05/05 01:22:06;;;;;;;24.30;12.45;;;;;;;10.40;68.85;101938.28;5042693;28;20025;-83
2022/05/05 01:30:00;;;;;;;24.80;12.52;;;;;;;10.41;69.24;101934.81;5041893;28;20307;-83
2022/05/05 01:32:32;;;;;;;26.27;12.15;;;;;;;10.37;69.37;101925.09;5042530;28;20278;-83
2022/05/05 01:34:58;;;;;;;25.83;13.00;;;;;;;10.35;69.59;101929.34;5043005;28;20256;-83
2022/05/05 01:37:24;;;;;;;22.50;12.23;;;;;;;10.30;69.39;101933.44;5036862;28;20108;-83
2022/05/05 01:39:49;;;;;;;24.83;12.27;;;;;;;10.29;69.23;101931.69;5040986;28;20041;-83
2022/05/05 01:42:14;;;;;;;26.95;12.93;;;;;;;10.27;68.94;101929.91;5042287;28;20029;-83
2022/05/05 01:44:39;;;;;;;25.77;12.73;;;;;;;10.29;69.62;101932.56;5042346;28;20279;-83
2022/05/05 01:47:05;;;;;;;29.67;13.63;;;;;;;10.29;70.05;101936.88;5041114;28;20180;-83
2022/05/05 01:49:30;;;;;;;27.52;13.75;;;;;;;10.26;70.35;101927.22;5042326;28;20076;-83
2022/05/05 01:51:55;;;;;;;29.80;14.20;;;;;;;10.24;70.20;101934.97;5042961;28;20021;-83
2022/05/05 01:54:21;;;;;;;32.50;14.02;;;;;;;10.22;70.39;101936.59;5057814;28;20041;-83
2022/05/05 01:56:46;;;;;;;26.20;13.50;;;;;;;10.22;70.83;101934.00;5056792;28;20049;-83
2022/05/05 01:59:11;;;;;;;24.38;12.20;;;;;;;10.25;70.98;101938.47;5041929;28;20311;-83
2022/05/05 02:01:37;;;;;;;25.17;12.85;;;;;;;10.30;70.94;101939.56;5057808;28;20017;-83
2022/05/05 02:04:02;;;;;;;27.52;13.05;;;;;;;10.30;70.81;101941.25;5042282;28;20021;-83
2022/05/05 02:06:27;;;;;;;24.30;12.40;;;;;;;10.25;70.95;101939.38;5055772;28;20026;-83
2022/05/05 02:08:52;;;;;;;27.75;13.55;;;;;;;10.25;70.95;101939.38;5041167;28;20025;-83
2022/05/05 02:11:18;;;;;;;26.85;12.88;;;;;;;10.26;71.45;101938.53;5042212;28;20036;-83
2022/05/05 02:13:43;;;;;;;27.48;13.52;;;;;;;10.27;71.23;101944.66;5042341;28;20085;-83
2022/05/05 02:16:09;;;;;;;28.52;13.85;;;;;;;10.27;71.22;101948.13;5041619;28;20260;-83
2022/05/05 02:18:34;;;;;;;25.40;12.55;;;;;;;10.29;70.97;101942.09;5041940;28;20045;-83
2022/05/05 02:20:59;;;;;;;27.65;13.00;;;;;;;10.26;71.01;101940.25;5041116;28;20211;-84
2022/05/05 02:23:25;;;;;;;25.88;13.10;;;;;;;10.27;71.32;101939.44;5042083;28;20052;-83
2022/05/05 02:25:50;;;;;;;27.23;13.18;;;;;;;10.27;71.15;101944.66;5042314;28;20026;-83
2022/05/05 02:28:15;;;;;;;29.88;13.52;;;;;;;10.25;71.32;101944.59;5041400;28;20081;-83
2022/05/05 02:30:41;;;;;;;26.38;12.70;;;;;;;10.30;71.37;101943.84;5037195;28;20029;-83
2022/05/05 02:33:06;;;;;;;26.10;13.35;;;;;;;10.31;71.32;101948.25;5038957;28;20060;-83
2022/05/05 02:35:31;;;;;;;27.95;13.38;;;;;;;10.32;71.25;101942.22;5042146;28;20048;-83
2022/05/05 02:40:41;;;;;;;27.13;12.98;;;;;;;10.32;71.28;101944.84;5038152;28;20076;-83
2022/05/05 02:43:06;;;;;;;28.60;13.40;;;;;;;10.34;71.31;101941.50;5038464;28;20044;-83
2022/05/05 02:45:32;;;;;;;26.52;13.05;;;;;;;10.33;71.42;101949.22;5045491;28;20081;-83
2022/05/05 02:47:58;;;;;;;28.15;13.77;;;;;;;10.32;70.92;101953.53;5045495;28;20034;-83
2022/05/05 02:50:24;;;;;;;29.23;13.77;;;;;;;10.31;71.01;101949.16;5043363;28;20261;-83
2022/05/05 02:52:49;;;;;;;27.02;13.00;;;;;;;10.30;71.11;101949.97;5041649;28;20032;-83
2022/05/05 02:55:14;;;;;;;28.95;13.90;;;;;;;10.29;70.91;101947.31;5045442;28;20085;-83
2022/05/05 02:57:40;;;;;;;29.58;13.75;;;;;;;10.28;71.01;101946.41;5045326;28;20036;-83
2022/05/05 03:00:08;;;;;;;30.80;14.63;;;;;;;10.26;71.00;101946.34;5044025;28;20179;-83
2022/05/05 03:02:34;;;;;;;29.55;14.20;;;;;;;10.26;71.07;101946.34;5033694;28;20315;-83
2022/05/05 03:04:59;;;;;;;30.95;14.10;;;;;;;10.22;71.28;101947.03;5032146;28;20035;-83
2022/05/05 03:07:25;;;;;;;28.90;13.68;;;;;;;10.20;71.76;101942.59;5045074;28;20294;-83
2022/05/05 03:09:50;;;;;;;25.55;13.32;;;;;;;10.18;71.95;101945.16;5045162;28;20025;-83
2022/05/05 03:12:15;;;;;;;30.90;14.63;;;;;;;10.16;72.48;101946.78;5030902;28;20030;-83
2022/05/05 03:14:40;;;;;;;30.50;14.07;;;;;;;10.16;72.33;101941.56;5043905;28;20036;-83
2022/05/05 03:17:06;;;;;;;29.83;14.13;;;;;;;10.16;72.50;101941.56;5060321;28;20288;-82
2022/05/05 03:19:31;;;;;;;30.85;14.80;;;;;;;10.15;72.71;101934.56;5060323;28;20038;-82
2022/05/05 03:21:57;;;;;;;32.65;15.02;;;;;;;10.15;73.08;101937.16;5042667;28;20279;-81
2022/05/05 03:24:23;;;;;;;31.38;14.57;;;;;;;10.14;73.54;101932.81;5030925;28;20071;-81
2022/05/05 03:26:48;;;;;;;29.52;14.18;;;;;;;10.13;73.62;101940.56;5056253;28;20180;-82
2022/05/05 03:29:14;;;;;;;30.85;13.98;;;;;;;10.13;73.28;101945.75;5043702;28;20032;-82
2022/05/05 03:31:39;;;;;;;29.40;13.98;;;;;;;10.12;73.18;101951.78;5060252;28;20032;-82
2022/05/05 03:34:06;;;;;;;31.50;14.38;;;;;;;10.07;72.97;101959.41;5039467;28;20048;-82
2022/05/05 03:36:31;;;;;;;30.10;14.25;;;;;;;10.05;72.68;101958.44;5042458;28;20164;-82
2022/05/05 03:38:57;;;;;;;32.75;14.48;;;;;;;9.98;73.09;101949.47;5044445;28;20034;-82
2022/05/05 03:41:22;;;;;;;31.45;14.48;;;;;;;9.96;73.39;101953.72;5044575;28;20025;-82
2022/05/05 03:43:48;;;;;;;33.90;14.77;;;;;;;9.93;73.10;101953.59;5043089;28;20037;-81
2022/05/05 03:46:13;;;;;;;31.67;14.45;;;;;;;9.91;73.42;101952.63;5043982;28;20026;-81
2022/05/05 03:48:39;;;;;;;32.72;15.05;;;;;;;9.93;73.85;101950.97;5044402;28;20040;-82
2022/05/05 03:51:04;;;;;;;31.92;14.68;;;;;;;9.95;73.28;101959.75;5044303;28;20282;-81
2022/05/05 03:53:30;;;;;;;29.88;14.10;;;;;;;9.90;73.70;101956.06;5043539;28;20327;-82
2022/05/05 03:55:55;;;;;;;32.25;15.32;;;;;;;9.90;73.97;101959.53;5042956;28;20080;-81
2022/05/05 03:58:21;;;;;;;38.67;15.48;;;;;;;9.89;73.57;101965.59;5044033;28;20036;-81
2022/05/05 04:00:46;;;;;;;30.83;15.40;;;;;;;9.90;74.15;101972.56;5044082;28;20288;-81
2022/05/05 04:03:31;;;;;;;33.65;15.82;;;;;;;9.90;74.69;101963.88;5044069;28;20033;-81
2022/05/05 04:06:06;;;;;;;34.85;15.80;;;;;;;9.96;74.85;101968.47;5028342;28;20057;-81
2022/05/05 04:08:33;;;;;;;37.15;15.32;;;;;;;9.96;74.29;101973.66;5036296;28;20025;-81
2022/05/05 04:10:58;;;;;;;36.67;16.23;;;;;;;9.97;74.55;101971.13;5043909;28;20044;-82
2022/05/05 04:13:25;;;;;;;33.38;16.10;;;;;;;9.97;74.30;101975.44;5044066;28;20260;-81
2022/05/05 04:15:51;;;;;;;33.88;15.88;;;;;;;9.98;74.68;101978.13;5031439;28;20048;-81
2022/05/05 04:18:16;;;;;;;33.38;15.90;;;;;;;10.00;74.53;101975.59;5043712;28;20045;-81
2022/05/05 04:20:42;;;;;;;36.45;16.40;;;;;;;10.03;74.50;101981.81;5043762;28;20059;-81
2022/05/05 04:23:08;;;;;;;35.75;15.50;;;;;;;10.00;74.65;101983.41;5037759;28;20033;-82
2022/05/05 04:25:35;;;;;;;37.20;15.98;;;;;;;10.03;74.92;101983.53;5043658;28;20041;-81
2022/05/05 04:28:00;;;;;;;35.63;16.25;;;;;;;10.03;74.67;101983.53;5043712;28;21046;-83
2022/05/05 04:30:26;;;;;;;33.58;15.77;;;;;;;10.05;74.81;101989.69;5043602;28;20025;-83
2022/05/05 04:32:51;;;;;;;35.53;15.70;;;;;;;10.07;74.75;101988.94;5038402;28;20021;-83
2022/05/05 04:35:17;;;;;;;36.65;16.02;;;;;;;10.09;74.90;101991.59;5043399;28;20025;-83
2022/05/05 04:37:42;;;;;;;36.28;15.80;;;;;;;10.10;75.18;101993.41;5038569;28;20029;-83
2022/05/05 04:40:08;;;;;;;35.10;15.90;;;;;;;10.10;75.10;101993.41;5043383;28;20026;-83
2022/05/05 04:42:34;;;;;;;40.08;17.20;;;;;;;10.10;75.17;101994.28;5043537;28;20021;-83
2022/05/05 04:45:00;;;;;;;42.90;17.48;;;;;;;10.12;75.09;101998.66;5030772;28;20199;-83
2022/05/05 04:47:26;;;;;;;37.35;17.08;;;;;;;10.11;75.49;101995.19;5031321;28;20033;-83
2022/05/05 04:49:53;;;;;;;40.42;17.35;;;;;;;10.13;75.23;102001.34;5043392;28;20315;-83
2022/05/05 04:52:18;;;;;;;40.42;17.40;;;;;;;10.15;75.69;101993.59;5043089;28;20172;-83
2022/05/05 04:54:43;;;;;;;40.33;17.27;;;;;;;10.17;75.63;101999.78;5043137;28;20029;-83
2022/05/05 04:57:09;;;;;;;44.38;18.70;;;;;;;10.16;75.79;101998.88;5031282;28;20057;-83
2022/05/05 04:59:34;;;;;;;45.90;19.52;;;;;;;10.18;75.38;102011.94;5043187;28;20036;-83
2022/05/05 05:01:59;;;;;;;44.28;19.67;;;;;;;10.18;75.66;101999.84;5043230;28;20033;-83
2022/05/05 05:04:25;;;;;;;42.47;20.25;;;;;;;10.23;74.93;102011.34;5042871;28;20033;-83
2022/05/05 05:06:50;;;;;;;49.72;19.92;;;;;;;10.29;75.24;102007.22;5041891;28;20076;-83
2022/05/05 05:09:15;;;;;;;51.38;20.80;;;;;;;10.30;75.19;102014.19;5042891;28;20044;-83
2022/05/05 05:11:40;;;;;;;54.47;20.77;;;;;;;10.30;74.89;102009.91;5055164;28;20024;-83
2022/05/05 05:14:06;;;;;;;46.50;21.40;;;;;;;10.33;74.83;102014.34;5034534;28;20232;-84
2022/05/05 05:16:31;;;;;;;49.13;21.60;;;;;;;10.34;75.24;102011.84;5058238;28;20041;-83
2022/05/05 05:18:56;;;;;;;54.20;21.88;;;;;;;10.38;75.01;102020.69;5042470;28;20113;-83
2022/05/05 05:21:22;;;;;;;49.92;20.98;;;;;;;10.40;75.51;102027.75;5042760;28;20216;-83
2022/05/05 05:23:48;;;;;;;55.88;22.38;;;;;;;10.42;75.52;102027.81;5036489;28;20029;-83
2022/05/05 05:26:16;;;;;;;50.42;22.40;;;;;;;10.43;75.38;102029.59;5039726;28;20033;-83
2022/05/05 05:28:41;;;;;;;54.78;24.27;;;;;;;10.46;75.09;102034.03;5042608;28;20149;-83
2022/05/05 05:31:07;;;;;;;52.97;24.05;;;;;;;10.47;75.53;102039.34;5042681;28;20056;-83
2022/05/05 05:33:32;;;;;;;56.88;24.58;;;;;;;10.48;75.94;102033.28;5058127;28;20029;-83
2022/05/05 05:35:58;;;;;;;55.83;24.65;;;;;;;10.50;75.41;102038.53;5042564;28;20025;-83
2022/05/05 05:38:23;;;;;;;56.78;24.33;;;;;;;10.50;75.69;102030.72;5042084;28;20264;-83
2022/05/05 05:40:49;;;;;;;59.05;25.30;;;;;;;10.53;75.68;102036.06;5042261;28;20284;-83
2022/05/05 05:43:14;;;;;;;57.28;24.73;;;;;;;10.54;75.18;102040.47;5041974;28;20033;-83
2022/05/05 05:45:39;;;;;;;61.55;27.42;;;;;;;10.53;75.23;102042.19;5042534;28;20045;-83
2022/05/05 05:48:06;;;;;;;64.25;26.85;;;;;;;10.57;75.88;102033.69;5036200;28;20040;-84
2022/05/05 05:50:32;;;;;;;65.45;27.55;;;;;;;10.59;75.67;102042.44;5040680;28;20017;-83
2022/05/05 05:52:58;;;;;;;72.10;30.27;;;;;;;10.63;75.57;102038.28;5036321;28;20048;-83
2022/05/05 05:55:23;;;;;;;82.53;31.80;;;;;;;10.64;75.82;102044.38;5041188;28;20017;-83
2022/05/05 05:57:49;;;;;;;72.60;34.00;;;;;;;10.69;75.24;102045.44;5032414;28;20142;-84
2022/05/05 06:00:14;;;;;;;73.65;32.92;;;;;;;10.70;75.00;102049.81;5041549;28;20025;-83
2022/05/05 06:05:24;;;;;;;78.80;36.58;;;;;;;10.76;75.40;102053.59;5042088;28;20037;-83
2022/05/05 06:07:49;;;;;;;84.45;36.47;;;;;;;10.80;75.56;102052.00;5057482;28;20181;-83
2022/05/05 06:10:18;;;;;;;87.45;37.28;;;;;;;10.84;75.48;102055.63;5036218;28;20180;-83
2022/05/05 06:12:43;;;;;;;85.93;39.20;;;;;;;10.99;75.02;102058.88;5042051;28;20025;-83
2022/05/05 06:15:09;;;;;;;84.70;40.33;;;;;;;11.22;75.38;102057.19;5042329;28;20109;-83
2022/05/05 06:17:35;;;;;;;94.35;42.53;;;;;;;11.50;73.77;102053.09;5044488;28;20045;-83
2022/05/05 06:20:00;;;;;;;94.30;44.90;;;;;;;11.72;73.57;102057.44;5044590;28;20196;-83
2022/05/05 06:22:25;;;;;;;94.82;45.13;;;;;;;11.97;71.73;102061.00;5045663;28;20080;-83
2022/05/05 06:24:51;;;;;;;111.47;47.38;;;;;;;12.05;71.70;102058.66;5033659;28;20045;-83
2022/05/05 06:27:16;;;;;;;100.78;47.47;;;;;;;12.11;71.41;102054.56;5036824;28;20030;-83
2022/05/05 06:29:41;;;;;;;101.53;45.55;;;;;;;12.15;71.56;102060.78;5045694;28;20034;-83
2022/05/05 06:32:07;;;;;;;108.10;44.80;;;;;;;12.17;70.23;102064.34;5045511;28;20176;-83
2022/05/05 06:34:32;;;;;;;106.95;44.40;;;;;;;12.22;69.58;102062.78;5045413;28;20029;-83
2022/05/05 06:36:59;;;;;;;92.53;40.53;;;;;;;12.28;68.46;102063.03;5045552;28;20080;-83
2022/05/05 06:39:24;;;;;;;102.53;43.58;;;;;;;12.31;68.92;102063.13;5041466;28;20025;-83
2022/05/05 06:41:49;;;;;;;92.88;40.25;;;;;;;12.41;69.34;102064.38;5045761;28;20052;-83
2022/05/05 06:44:14;;;;;;;97.15;42.40;;;;;;;12.47;69.48;102058.44;5043208;28;20036;-83
2022/05/05 06:46:40;;;;;;;88.45;36.80;;;;;;;12.56;68.49;102064.00;5034775;28;20468;-83
2022/05/05 06:49:05;;;;;;;89.15;35.28;;;;;;;12.63;67.67;102063.38;5041268;28;20026;-83
2022/05/05 06:51:30;;;;;;;90.68;35.80;;;;;;;12.70;67.21;102064.47;5042580;28;20067;-83
2022/05/05 06:53:56;;;;;;;83.00;34.60;;;;;;;12.79;66.62;102071.75;5037487;28;20025;-83
2022/05/05 06:56:23;;;;;;;82.00;33.47;;;;;;;12.83;66.37;102069.31;5043073;28;20025;-83
2022/05/05 06:58:49;;;;;;;88.22;34.60;;;;;;;12.90;66.80;102070.38;5041312;28;20028;-83
2022/05/05 07:06:42;;;;;;;83.63;33.90;;;;;;;13.16;66.80;102078.22;5032019;28;20075;-83
2022/05/05 07:11:52;;;;;;;109.38;35.90;;;;;;;13.29;66.82;102085.63;5038928;28;20287;-83
2022/05/05 07:14:18;;;;;;;96.95;35.70;;;;;;;13.34;67.51;102089.34;5036492;28;20036;-84
2022/05/05 07:16:43;;;;;;;96.28;35.13;;;;;;;13.38;67.18;102096.44;5036553;28;20025;-84
2022/05/05 07:19:09;;;;;;;96.65;34.78;;;;;;;13.41;66.93;102087.78;5056239;28;20187;-84
2022/05/05 07:21:36;;;;;;;119.75;39.17;;;;;;;13.46;68.13;102088.81;5034646;28;20021;-84
2022/05/05 07:24:02;;;;;;;138.38;44.17;;;;;;;13.58;69.86;102096.16;5044715;28;20300;-84
2022/05/05 07:26:27;;;;;;;121.78;43.38;;;;;;;13.67;70.06;102093.88;5034870;28;20068;-84
2022/05/05 07:28:53;;;;;;;119.00;43.53;;;;;;;13.78;70.90;102101.16;5037519;28;20056;-84
2022/05/05 07:31:18;;;;;;;112.97;40.95;;;;;;;13.84;68.06;102101.34;5060176;28;20022;-83
2022/05/05 07:33:43;;;;;;;122.10;43.63;;;;;;;13.87;68.39;102101.44;5034355;28;20252;-83
2022/05/05 07:36:08;;;;;;;101.38;39.92;;;;;;;13.88;66.33;102104.09;5041610;28;20028;-84
2022/05/05 07:38:35;;;;;;;113.30;41.58;;;;;;;13.93;68.65;102101.59;5036158;28;20317;-83
2022/05/05 07:41:00;;;;;;;93.10;36.75;;;;;;;13.97;70.56;102110.47;5042175;28;20037;-84
2022/05/05 07:43:26;;;;;;;85.18;35.40;;;;;;;14.01;68.70;102107.97;5044175;28;20079;-83
2022/05/05 07:45:51;;;;;;;85.65;36.25;;;;;;;14.03;67.98;102102.78;5042750;28;20025;-83
2022/05/05 07:48:16;;;;;;;81.82;35.70;;;;;;;14.07;67.93;102102.03;5034489;28;20068;-84
2022/05/05 07:50:42;;;;;;;92.78;37.30;;;;;;;14.08;68.29;102104.69;5040353;28;20120;-84
2022/05/05 07:53:07;;;;;;;88.47;36.53;;;;;;;14.13;68.17;102110.06;5037707;28;20072;-86
2022/05/05 07:55:33;;;;;;;79.22;35.63;;;;;;;14.15;67.80;102112.72;5040974;28;20014;-76
2022/05/05 07:57:58;;;;;;;78.90;35.05;;;;;;;14.19;67.78;102111.97;5032189;28;20100;-76
2022/05/05 08:00:24;;;;;;;75.28;34.47;;;;;;;14.23;66.86;102111.22;5041932;28;20060;-76
2022/05/05 08:02:49;;;;;;;69.30;33.63;;;;;;;14.25;66.91;102114.75;5036010;28;20331;-76
2022/05/05 08:05:17;;;;;;;76.25;34.05;;;;;;;14.29;68.03;102118.38;5031465;28;20248;-76
2022/05/05 08:07:48;;;;;;;73.18;32.90;;;;;;;14.34;68.97;102115.03;5044371;28;20139;-76
2022/05/05 08:10:14;;;;;;;67.15;31.55;;;;;;;14.42;68.42;102125.75;5039713;28;20165;-75
2022/05/05 08:12:40;;;;;;;66.45;32.00;;;;;;;14.46;67.91;102124.09;5044041;28;20282;-76
2022/05/05 08:15:07;;;;;;;67.75;32.03;;;;;;;14.51;69.33;102128.66;5044127;28;20025;-76
2022/05/05 08:17:33;;;;;;;63.83;32.15;;;;;;;14.53;68.23;102126.94;5042327;28;20030;-76
2022/05/05 08:19:59;;;;;;;63.97;31.77;;;;;;;14.54;67.88;102125.19;5044409;28;20085;-76
2022/05/05 08:22:24;;;;;;;59.33;31.92;;;;;;;14.54;66.98;102125.19;5043722;28;20029;-76
2022/05/05 08:30:17;;;;;;;54.10;28.00;;;;;;;14.60;67.43;102128.88;5033990;28;20025;-76
2022/05/05 08:32:42;;;;;;;56.35;30.65;;;;;;;14.61;66.18;102137.63;5027895;28;20053;-75
2022/05/05 08:35:08;;;;;;;55.45;28.83;;;;;;;14.60;66.09;102141.13;5040056;28;20024;-75
2022/05/05 08:37:33;;;;;;;56.35;29.13;;;;;;;14.60;65.65;102135.88;5043716;28;20022;-75
2022/05/05 08:39:58;;;;;;;51.85;28.67;;;;;;;14.60;66.23;102136.75;5040227;28;20025;-76
2022/05/05 08:42:24;;;;;;;53.42;28.77;;;;;;;14.62;67.48;102142.06;5059023;28;20021;-76
2022/05/05 08:44:50;;;;;;;51.75;28.27;;;;;;;14.66;68.53;102149.19;5043407;28;20272;-75
2022/05/05 08:47:16;;;;;;;53.45;29.67;;;;;;;14.67;66.92;102150.06;5043374;28;20097;-76
2022/05/05 08:49:43;;;;;;;59.47;30.15;;;;;;;14.70;67.56;102152.78;5057685;28;20026;-76
2022/05/05 08:52:11;;;;;;;48.85;27.60;;;;;;;14.70;66.37;102151.06;5043317;28;20044;-75
2022/05/05 08:54:39;;;;;;;56.90;28.65;;;;;;;14.71;66.86;102155.44;5058860;28;20037;-75
2022/05/05 08:57:05;;;;;;;53.25;29.48;;;;;;;14.71;65.87;102150.19;5043231;28;20028;-76
2022/05/05 08:59:31;;;;;;;54.58;28.17;;;;;;;14.72;65.62;102154.59;5058750;28;20089;-76
2022/05/05 09:01:56;;;;;;;50.05;29.08;;;;;;;14.74;66.05;102152.00;5042968;28;20123;-76
2022/05/05 09:04:22;;;;;;;49.38;27.45;;;;;;;14.76;66.18;102159.09;5037225;28;20981;-76
2022/05/05 09:06:51;;;;;;;55.78;29.35;;;;;;;14.79;66.32;102158.28;5036624;28;20029;-75
2022/05/05 09:09:30;;;;;;;50.17;28.02;;;;;;;14.84;66.42;102158.41;5033815;28;20051;-76
2022/05/05 09:12:16;;;;;;;53.42;29.90;;;;;;;14.85;65.48;102157.56;5058265;28;20028;-75
2022/05/05 09:14:53;;;;;;;54.97;30.17;;;;;;;14.87;66.57;102163.72;5042940;28;20112;-75
2022/05/05 09:17:23;;;;;;;53.42;28.02;;;;;;;14.92;67.66;102165.63;5043116;28;20029;-75
2022/05/05 09:19:56;;;;;;;56.63;29.90;;;;;;;14.98;66.42;102164.03;5042101;28;20040;-75
2022/05/05 09:22:24;;;;;;;53.13;29.73;;;;;;;14.98;65.04;102162.28;5040172;28;20077;-75
2022/05/05 09:24:51;;;;;;;56.80;30.73;;;;;;;14.99;63.98;102169.34;5057079;28;20029;-76
2022/05/05 09:27:17;;;;;;;53.22;29.70;;;;;;;15.05;65.79;102164.22;5058216;28;20252;-76
2022/05/05 09:29:57;;;;;;;53.80;30.10;;;;;;;15.10;66.42;102166.97;5043246;28;20033;-76
2022/05/05 09:32:26;;;;;;;;;;;;;;;15.17;65.60;102173.28;5041954;28;20088;-76
2022/05/05 09:34:59;;;;;;;53.05;30.55;;;;;;;15.17;65.11;102171.53;5028632;28;19925;-76
2022/05/05 09:37:25;;;;;;;51.70;29.27;;;;;;;15.19;64.43;102169.81;5042695;28;20259;-76
2022/05/05 09:40:00;;;;;;;53.47;29.70;;;;;;;15.24;63.97;102172.59;5043035;28;20036;-76
2022/05/05 09:42:37;;;;;;;54.10;30.88;;;;;;;15.32;66.44;102170.16;5041672;28;20040;-76
2022/05/05 09:45:21;;;;;;;50.47;29.15;;;;;;;15.38;66.24;102172.94;5030774;28;20029;-76
2022/05/05 09:48:05;;;;;;;56.08;32.28;;;;;;;15.39;63.68;102178.22;5042463;28;20256;-76
2022/05/05 09:50:37;;;;;;;55.65;30.90;;;;;;;15.45;65.29;102173.13;5040477;28;20099;-76
2022/05/05 09:58:41;;;;;;;52.75;29.80;;;;;;;15.64;65.52;102186.69;5030888;28;20060;-76
2022/05/05 10:01:21;;;;;;;51.75;30.67;;;;;;;15.70;64.97;102191.22;5042338;28;20022;-76
2022/05/05 10:04:03;;;;;;;53.70;30.52;;;;;;;15.72;64.39;102179.91;5042529;28;20229;-76
2022/05/05 10:06:30;;;;;;;50.40;31.00;;;;;;;15.74;62.85;102183.47;5048646;28;20215;-76
2022/05/05 10:09:00;;;;;;;52.03;31.75;;;;;;;15.76;63.38;102183.50;5057868;28;20056;-76
2022/05/05 10:11:25;;;;;;;58.15;32.50;;;;;;;15.87;65.07;102178.53;5042163;28;20291;-76
2022/05/05 10:13:51;;;;;;;58.03;32.53;;;;;;;15.97;66.25;102181.41;5042552;28;20033;-76
2022/05/05 10:16:19;;;;;;;54.33;32.00;;;;;;;15.99;62.97;102176.19;5028051;28;20176;-76
2022/05/05 10:18:44;;;;;;;51.42;31.42;;;;;;;16.02;62.61;102181.50;5042187;28;20045;-75
2022/05/05 10:21:32;;;;;;;57.50;32.80;;;;;;;16.03;61.81;102179.75;5040958;28;20018;-77
2022/05/05 10:24:10;;;;;;;52.65;32.08;;;;;;;16.02;62.50;102178.88;5034629;28;20025;-76
2022/05/05 10:26:36;;;;;;;56.03;34.20;;;;;;;16.09;62.73;102179.88;5057634;28;20029;-76
2022/05/05 10:29:03;;;;;;;54.55;33.03;;;;;;;16.13;63.73;102176.47;5041615;28;20276;-76
2022/05/05 10:31:31;;;;;;;56.33;34.25;;;;;;;16.17;63.25;102180.94;5029561;28;20033;-75
2022/05/05 10:33:56;;;;;;;58.38;35.28;;;;;;;16.22;64.23;102176.69;5036238;28;20034;-75
2022/05/05 10:36:23;;;;;;;59.03;35.43;;;;;;;16.25;61.99;102183.75;5042027;28;20022;-76
2022/05/05 10:38:49;;;;;;;56.60;34.75;;;;;;;16.23;61.45;102174.94;5042060;28;20576;-76
2022/05/05 10:41:30;;;;;;;57.45;35.15;;;;;;;16.29;62.22;102178.59;5041944;28;20041;-75
2022/05/05 10:44:13;;;;;;;56.20;36.40;;;;;;;16.36;62.61;102176.97;5041821;28;20391;-76
2022/05/05 10:46:57;;;;;;;56.60;36.80;;;;;;;16.46;62.18;102175.44;5037163;28;20022;-76
2022/05/05 10:49:39;;;;;;;56.92;36.28;;;;;;;16.55;62.83;102182.63;5032403;28;20272;-76
2022/05/05 10:52:10;;;;;;;57.42;36.13;;;;;;;16.60;61.14;102173.97;5057454;28;20291;-75
2022/05/05 10:54:42;;;;;;;58.00;36.40;;;;;;;16.67;62.95;102178.50;5041863;28;20087;-75
2022/05/05 10:57:25;;;;;;;53.95;35.95;;;;;;;16.71;62.04;102179.44;5041922;28;20022;-75
2022/05/05 11:00:11;;;;;;;52.33;35.85;;;;;;;16.72;60.69;102178.56;5041716;28;20037;-76
2022/05/05 11:02:38;;;;;;;53.63;34.90;;;;;;;16.74;59.01;102181.25;5035028;28;20089;-76
2022/05/05 11:05:24;;;;;;;52.45;33.85;;;;;;;16.73;59.46;102180.38;5044054;28;20033;-75
2022/05/05 11:07:49;;;;;;;46.03;31.88;;;;;;;16.77;58.57;102179.56;5045269;28;20017;-76
2022/05/05 11:10:44;;;;;;;51.45;32.65;;;;;;;16.78;58.48;102185.72;5045265;28;20032;-76
2022/05/05 11:13:31;;;;;;;49.53;34.17;;;;;;;16.83;60.22;102179.69;5060526;28;20179;-76
2022/05/05 11:22:18;;;;;;;45.03;31.88;;;;;;;17.07;57.88;102180.16;5045132;28;20032;-75
2022/05/05 11:24:46;;;;;;;47.63;30.58;;;;;;;17.17;59.00;102179.44;5040167;28;20161;-75
2022/05/05 11:27:16;;;;;;;50.08;33.63;;;;;;;17.21;58.81;102182.16;5041280;28;20188;-76
2022/05/05 11:29:49;;;;;;;48.25;30.95;;;;;;;17.33;59.58;102177.97;5043743;28;20318;-76
2022/05/05 11:32:15;;;;;;;48.10;32.10;;;;;;;17.35;56.90;102177.13;5044744;28;20022;-76
2022/05/05 11:34:41;;;;;;;44.42;29.90;;;;;;;17.46;59.19;102179.94;5044666;28;20100;-76
2022/05/05 11:37:08;;;;;;;38.15;27.63;;;;;;;17.54;57.90;102182.72;5044666;28;20052;-76
2022/05/05 11:39:35;;;;;;;41.78;30.58;;;;;;;17.54;56.77;102180.97;5060202;28;20017;-76
2022/05/05 11:42:11;;;;;;;43.67;30.50;;;;;;;17.53;56.06;102181.81;5044790;28;20049;-76
2022/05/05 11:44:39;;;;;;;47.55;32.90;;;;;;;17.52;56.02;102182.69;5040319;28;20029;-76
2022/05/05 11:47:11;;;;;;;45.63;31.13;;;;;;;17.60;59.05;102181.91;5044991;28;20034;-76
2022/05/05 11:49:38;;;;;;;46.42;31.58;;;;;;;17.68;56.60;102180.28;5044509;28;20092;-76
2022/05/05 11:52:04;;;;;;;45.25;30.98;;;;;;;17.73;57.67;102178.63;5044706;28;20013;-76